createdAt,value
2018-09-04T00:00:01.862Z,48.07
2018-09-04T00:02:30.729Z,50.67
2018-09-04T00:04:59.678Z,48.47
2018-09-04T00:07:28.561Z,46.27
2018-09-04T00:09:57.440Z,50.30
2018-09-04T00:12:26.307Z,47.23
2018-09-04T00:14:55.190Z,46.17
2018-09-04T00:17:24.035Z,47.97
2018-09-04T00:19:59.206Z,44.20
2018-09-04T00:22:28.132Z,46.63
2018-09-04T00:24:57.096Z,47.53
2018-09-04T00:27:26.157Z,45.77
2018-09-04T00:29:55.095Z,46.77
2018-09-04T00:32:24.022Z,48.73
2018-09-04T00:34:52.858Z,50.47
2018-09-04T00:37:21.776Z,54.07
2018-09-04T00:39:51.172Z,49.37
2018-09-04T00:42:20.098Z,52.43
2018-09-04T00:44:49.001Z,58.33
2018-09-04T00:47:17.886Z,50.43
2018-09-04T00:49:46.772Z,48.70
2018-09-04T00:52:15.614Z,48.40
2018-09-04T00:54:44.426Z,48.20
2018-09-04T00:57:13.321Z,47.27
2018-09-04T00:59:42.171Z,49.43
2018-09-04T01:02:13.831Z,52.00
2018-09-04T01:04:42.847Z,50.43
2018-09-04T01:07:11.716Z,49.37
2018-09-04T01:09:40.591Z,46.27
2018-09-04T01:12:09.480Z,53.27
2018-09-04T01:14:38.333Z,49.60
2018-09-04T01:17:07.247Z,45.17
2018-09-04T01:19:36.065Z,50.20
2018-09-04T01:22:04.926Z,54.17
2018-09-04T01:24:34.292Z,55.37
2018-09-04T01:27:03.142Z,52.07
2018-09-04T01:29:32.016Z,54.17
2018-09-04T01:32:00.870Z,53.87
2018-09-04T01:34:29.720Z,57.67
2018-09-04T01:36:58.521Z,53.73
2018-09-04T01:39:27.320Z,56.20
2018-09-04T01:41:56.159Z,52.20
2018-09-04T01:44:25.011Z,54.00
2018-09-04T01:46:53.791Z,50.70
2018-09-04T01:49:22.697Z,60.10
2018-09-04T01:51:51.601Z,50.93
2018-09-04T01:54:20.416Z,59.00
2018-09-04T01:56:49.284Z,53.83
2018-09-04T01:59:18.059Z,56.73
2018-09-04T02:01:47.009Z,56.23
2018-09-04T02:04:15.876Z,60.57
2018-09-04T02:06:44.726Z,53.40
2018-09-04T02:09:13.558Z,54.00
2018-09-04T02:11:42.408Z,52.57
2018-09-04T02:14:11.155Z,52.87
2018-09-04T02:16:40.051Z,52.10
2018-09-04T02:19:08.841Z,54.20
2018-09-04T02:21:37.660Z,51.37
2018-09-04T02:24:06.496Z,51.50
2018-09-04T02:26:35.325Z,52.80
2018-09-04T02:29:04.189Z,48.27
2018-09-04T02:31:33.020Z,41.70
2018-09-04T02:34:01.889Z,47.30
2018-09-04T02:36:30.682Z,50.57
2018-09-04T02:38:59.543Z,51.67
2018-09-04T02:41:28.361Z,53.93
2018-09-04T02:43:57.176Z,51.60
2018-09-04T02:46:26.007Z,63.70
2018-09-04T02:48:54.804Z,56.67
2018-09-04T02:51:23.596Z,52.63
2018-09-04T02:53:52.457Z,68.07
2018-09-04T02:56:21.272Z,76.37
2018-09-04T02:58:50.226Z,68.67
2018-09-04T03:01:19.004Z,70.53
2018-09-04T03:03:47.840Z,63.87
2018-09-04T03:06:16.656Z,57.80
2018-09-04T03:08:45.555Z,65.97
2018-09-04T03:11:14.325Z,55.90
2018-09-04T03:13:43.202Z,61.27
2018-09-04T03:16:12.017Z,74.93
2018-09-04T03:18:40.876Z,65.00
2018-09-04T03:21:09.656Z,64.73
2018-09-04T03:23:38.510Z,69.27
2018-09-04T03:26:07.261Z,68.43
2018-09-04T03:28:36.001Z,63.60
2018-09-04T03:31:04.819Z,71.47
2018-09-04T03:33:33.666Z,66.93
2018-09-04T03:36:02.520Z,70.77
2018-09-04T03:38:31.396Z,65.60
2018-09-04T03:41:00.253Z,63.90
2018-09-04T03:43:29.080Z,65.63
2018-09-04T03:45:57.868Z,69.87
2018-09-04T03:48:26.826Z,67.37
2018-09-04T03:50:55.690Z,65.80
2018-09-04T03:53:24.535Z,68.90
2018-09-04T03:55:59.677Z,68.07
2018-09-04T03:58:28.487Z,67.97
2018-09-04T04:00:57.289Z,69.00
2018-09-04T04:03:26.076Z,62.70
2018-09-04T04:05:54.901Z,68.73
2018-09-04T04:08:23.795Z,70.93
2018-09-04T04:10:52.690Z,72.27
2018-09-04T04:13:21.832Z,72.80
2018-09-04T04:15:50.698Z,73.90
2018-09-04T04:18:19.831Z,74.43
2018-09-04T04:20:58.177Z,67.53
2018-09-04T04:23:27.949Z,65.90
2018-09-04T04:25:58.161Z,65.20
2018-09-04T04:28:27.142Z,62.77
2018-09-04T04:30:55.925Z,66.07
2018-09-04T04:33:24.787Z,65.07
2018-09-04T04:35:53.591Z,62.10
2018-09-04T04:38:22.390Z,60.43
2018-09-04T04:40:51.253Z,64.00
2018-09-04T04:43:20.042Z,63.50
2018-09-04T04:45:48.903Z,62.63
2018-09-04T04:48:17.862Z,63.90
2018-09-04T04:50:46.712Z,60.83
2018-09-04T04:53:15.613Z,61.13
2018-09-04T04:55:44.535Z,73.90
2018-09-04T04:58:13.375Z,65.30
2018-09-04T05:00:42.213Z,67.23
2018-09-04T05:03:11.052Z,72.73
2018-09-04T05:05:39.957Z,73.63
2018-09-04T05:08:09.701Z,73.07
2018-09-04T05:10:38.600Z,70.97
2018-09-04T05:13:07.546Z,71.00
2018-09-04T05:15:36.423Z,75.93
2018-09-04T05:18:05.428Z,72.93
2018-09-04T05:20:34.311Z,69.80
2018-09-04T05:23:03.149Z,66.87
2018-09-04T05:25:32.072Z,65.33
2018-09-04T05:28:00.905Z,68.53
2018-09-04T05:30:29.777Z,69.80
2018-09-04T05:33:09.633Z,68.47
2018-09-04T05:35:42.386Z,68.40
2018-09-04T05:38:11.234Z,71.97
2018-09-04T05:40:40.116Z,72.63
2018-09-04T05:43:10.732Z,83.37
2018-09-04T05:45:40.106Z,80.30
2018-09-04T05:48:10.922Z,79.90
2018-09-04T05:50:39.894Z,79.57
2018-09-04T05:53:08.931Z,75.93
2018-09-04T05:55:37.835Z,75.17
2018-09-04T05:58:06.730Z,82.00
2018-09-04T06:00:38.750Z,81.57
2018-09-04T06:03:07.625Z,72.43
2018-09-04T06:05:36.635Z,76.90
2018-09-04T06:08:05.640Z,85.23
2018-09-04T06:10:34.550Z,71.17
2018-09-04T06:13:03.458Z,69.20
2018-09-04T06:15:32.315Z,72.60
2018-09-04T06:18:01.286Z,74.77
2018-09-04T06:20:30.216Z,77.70
2018-09-04T06:22:59.209Z,78.73
2018-09-04T06:25:28.220Z,74.57
2018-09-04T06:27:57.488Z,74.50
2018-09-04T06:30:27.079Z,80.67
2018-09-04T06:32:56.305Z,83.23
2018-09-04T06:35:25.654Z,82.53
2018-09-04T06:37:54.952Z,82.60
2018-09-04T06:40:23.969Z,86.13
2018-09-04T06:42:53.051Z,85.90
2018-09-04T06:45:22.205Z,84.47
2018-09-04T06:47:51.417Z,84.43
2018-09-04T06:50:20.705Z,84.17
2018-09-04T06:52:50.104Z,83.97
2018-09-04T06:55:19.365Z,86.83
2018-09-04T06:57:49.176Z,85.20
2018-09-04T07:00:18.172Z,80.33
2018-09-04T07:02:47.127Z,84.23
2018-09-04T07:05:16.062Z,81.00
2018-09-04T07:07:45.110Z,84.83
2018-09-04T07:10:14.136Z,82.27
2018-09-04T07:12:43.306Z,83.53
2018-09-04T07:15:13.025Z,78.60
2018-09-04T07:17:42.030Z,83.37
2018-09-04T07:20:11.069Z,84.00
2018-09-04T07:22:40.131Z,84.13
2018-09-04T07:25:09.185Z,79.80
2018-09-04T07:27:38.097Z,79.77
2018-09-04T07:30:07.299Z,74.20
2018-09-04T07:32:36.432Z,73.73
2018-09-04T07:35:05.579Z,74.30
2018-09-04T07:37:34.656Z,77.70
2018-09-04T07:40:03.648Z,79.30
2018-09-04T07:42:32.573Z,72.33
2018-09-04T07:45:01.378Z,76.23
2018-09-04T07:47:30.383Z,74.43
2018-09-04T07:49:59.307Z,73.53
2018-09-04T07:52:28.236Z,76.97
2018-09-04T07:54:57.161Z,72.37
2018-09-04T07:57:26.102Z,73.70
2018-09-04T07:59:55.161Z,75.20
2018-09-04T08:02:24.116Z,70.80
2018-09-04T08:04:53.052Z,75.03
2018-09-04T08:07:22.273Z,68.03
2018-09-04T08:09:51.288Z,69.13
2018-09-04T08:12:20.343Z,71.50
2018-09-04T08:14:49.429Z,77.87
2018-09-04T08:17:18.307Z,68.97
2018-09-04T08:19:47.137Z,62.83
2018-09-04T08:22:16.262Z,59.13
2018-09-04T08:24:45.166Z,64.03
2018-09-04T08:27:20.761Z,60.50
2018-09-04T08:29:49.650Z,60.47
2018-09-04T08:32:18.681Z,60.33
2018-09-04T08:34:47.769Z,59.50
2018-09-04T08:37:16.829Z,60.47
2018-09-04T08:39:45.781Z,60.33
2018-09-04T08:42:14.873Z,55.67
2018-09-04T08:44:43.911Z,57.70
2018-09-04T08:47:12.897Z,58.20
2018-09-04T08:49:41.755Z,52.23
2018-09-04T08:52:10.650Z,58.43
2018-09-04T08:54:39.639Z,53.37
2018-09-04T08:57:08.693Z,55.00
2018-09-04T08:59:37.655Z,49.50
2018-09-04T09:02:06.622Z,49.70
2018-09-04T09:04:35.732Z,48.10
2018-09-04T09:07:04.922Z,47.33
2018-09-04T09:09:33.934Z,46.20
2018-09-04T09:12:02.879Z,46.33
2018-09-04T09:14:31.892Z,47.50
2018-09-04T09:17:00.866Z,41.13
2018-09-04T09:19:29.895Z,43.77
2018-09-04T09:21:58.871Z,42.37
2018-09-04T09:24:27.960Z,37.03
2018-09-04T09:26:57.175Z,36.80
2018-09-04T09:29:26.242Z,33.93
2018-09-04T09:31:55.411Z,34.83
2018-09-04T09:34:24.639Z,30.63
2018-09-04T09:36:53.786Z,37.07
2018-09-04T09:39:22.720Z,36.73
2018-09-04T09:41:51.737Z,39.07
2018-09-04T09:44:20.736Z,36.77
2018-09-04T09:46:49.624Z,34.47
2018-09-04T09:49:18.744Z,34.67
2018-09-04T09:51:47.619Z,35.57
2018-09-04T09:54:16.498Z,40.23
2018-09-04T09:56:45.545Z,31.40
2018-09-04T09:59:14.417Z,32.43
2018-09-04T10:01:48.768Z,31.27
2018-09-04T10:04:17.896Z,27.10
2018-09-04T10:06:47.138Z,28.67
2018-09-04T10:09:16.216Z,25.87
2018-09-04T10:11:45.194Z,25.40
2018-09-04T10:14:14.302Z,25.92
2018-09-04T10:16:43.374Z,26.23
2018-09-04T10:19:12.437Z,23.95
2018-09-04T10:21:41.478Z,23.55
2018-09-04T10:24:10.561Z,21.73
2018-09-04T10:26:39.569Z,20.65
2018-09-04T10:29:08.569Z,20.75
2018-09-04T10:31:37.676Z,20.43
2018-09-04T10:34:06.781Z,19.05
2018-09-04T10:36:35.801Z,20.15
2018-09-04T10:39:11.600Z,22.22
2018-09-04T10:41:40.580Z,19.23
2018-09-04T10:44:09.556Z,19.50
2018-09-04T10:46:38.556Z,17.87
2018-09-04T10:49:07.538Z,14.38
2018-09-04T10:51:36.416Z,14.03
2018-09-04T10:54:06.721Z,9.00
2018-09-04T10:56:35.759Z,11.70
2018-09-04T10:59:04.788Z,12.00
2018-09-04T11:01:33.929Z,16.20
2018-09-04T11:04:03.023Z,15.05
2018-09-04T11:06:32.008Z,15.78
2018-09-04T11:09:01.215Z,17.98
2018-09-04T11:11:30.131Z,17.60
2018-09-04T11:13:59.132Z,16.73
2018-09-04T11:16:28.079Z,17.32
2018-09-04T11:18:56.971Z,18.17
2018-09-04T11:21:25.892Z,17.42
2018-09-04T11:23:55.035Z,16.25
2018-09-04T11:26:24.270Z,17.00
2018-09-04T11:28:56.091Z,17.50
2018-09-04T11:31:25.281Z,15.50
2018-09-04T11:33:54.357Z,15.58
2018-09-04T11:36:23.502Z,15.43
2018-09-04T11:38:52.561Z,15.03
2018-09-04T11:41:21.779Z,14.98
2018-09-04T11:43:50.747Z,15.30
2018-09-04T11:46:19.777Z,13.93
2018-09-04T11:48:48.806Z,14.38
2018-09-04T11:51:17.809Z,15.00
2018-09-04T11:53:46.729Z,15.43
2018-09-04T11:56:19.600Z,13.85
2018-09-04T11:58:48.919Z,13.88
2018-09-04T12:01:20.172Z,12.85
2018-09-04T12:03:49.247Z,13.75
2018-09-04T12:06:18.272Z,13.50
2018-09-04T12:08:47.222Z,13.15
2018-09-04T12:11:16.284Z,13.05
2018-09-04T12:13:45.216Z,13.95
2018-09-04T12:16:20.822Z,12.73
2018-09-04T12:18:50.834Z,14.50
2018-09-04T12:21:19.899Z,14.20
2018-09-04T12:23:49.832Z,13.30
2018-09-04T12:26:18.809Z,13.03
2018-09-04T12:28:47.879Z,12.15
2018-09-04T12:31:17.082Z,12.55
2018-09-04T12:33:46.986Z,12.00
2018-09-04T12:36:15.939Z,12.50
2018-09-04T12:38:45.156Z,12.33
2018-09-04T12:41:16.184Z,12.53
2018-09-04T12:43:45.071Z,12.88
2018-09-04T12:46:14.197Z,13.00
2018-09-04T12:48:50.013Z,12.80
2018-09-04T12:51:19.257Z,12.75
2018-09-04T12:53:48.326Z,13.53
2018-09-04T12:56:17.712Z,12.98
2018-09-04T12:58:46.635Z,13.78
2018-09-04T13:01:15.819Z,13.40
2018-09-04T13:03:44.771Z,12.98
2018-09-04T13:06:13.890Z,13.88
2018-09-04T13:08:43.151Z,12.90
2018-09-04T13:11:12.279Z,13.03
2018-09-04T13:13:41.478Z,11.45
2018-09-04T13:16:10.876Z,11.43
2018-09-04T13:18:40.048Z,12.10
2018-09-04T13:21:09.134Z,12.45
2018-09-04T13:23:38.222Z,11.95
2018-09-04T13:26:07.237Z,11.88
2018-09-04T13:28:37.519Z,12.13
2018-09-04T13:31:06.781Z,11.38
2018-09-04T13:33:35.747Z,12.10
2018-09-04T13:36:04.726Z,12.05
2018-09-04T13:38:33.804Z,11.73
2018-09-04T13:41:08.716Z,11.60
2018-09-04T13:43:39.167Z,12.53
2018-09-04T13:46:08.316Z,11.85
2018-09-04T13:48:37.449Z,11.70
2018-09-04T13:51:06.605Z,11.90
2018-09-04T13:53:35.742Z,13.22
2018-09-04T13:56:04.823Z,12.43
2018-09-04T13:58:33.891Z,11.53
2018-09-04T14:01:02.929Z,12.60
2018-09-04T14:03:31.929Z,11.90
2018-09-04T14:06:00.941Z,12.55
2018-09-04T14:08:30.030Z,12.98
2018-09-04T14:10:59.003Z,12.88
2018-09-04T14:13:27.953Z,12.10
2018-09-04T14:15:58.470Z,12.70
2018-09-04T14:18:27.400Z,11.97
2018-09-04T14:21:02.698Z,12.95
2018-09-04T14:23:31.641Z,12.78
2018-09-04T14:26:00.557Z,12.98
2018-09-04T14:28:44.459Z,12.20
2018-09-04T14:30:58.575Z,11.85
2018-09-04T14:33:27.656Z,11.95
2018-09-04T14:35:56.636Z,12.18
2018-09-04T14:38:25.656Z,13.38
2018-09-04T14:40:54.692Z,12.68
2018-09-04T14:43:23.784Z,12.15
2018-09-04T14:45:52.843Z,12.37
2018-09-04T14:48:21.936Z,11.90
2018-09-04T14:50:50.838Z,12.47
2018-09-04T14:53:19.812Z,13.03
2018-09-04T14:55:48.784Z,12.13
2018-09-04T14:58:18.113Z,12.35
2018-09-04T15:00:47.125Z,12.73
2018-09-04T15:03:16.209Z,12.55
2018-09-04T15:05:45.361Z,13.58
2018-09-04T15:08:15.360Z,13.32
2018-09-04T15:10:44.295Z,13.50
2018-09-04T15:13:13.231Z,12.07
2018-09-04T15:15:42.203Z,13.35
2018-09-04T15:18:11.181Z,12.35
2018-09-04T15:20:40.990Z,12.82
2018-09-04T15:23:09.819Z,13.22
2018-09-04T15:25:38.886Z,13.13
2018-09-04T15:28:17.313Z,14.13
2018-09-04T15:30:46.146Z,13.68
2018-09-04T15:33:14.993Z,14.85
2018-09-04T15:35:43.811Z,14.55
2018-09-04T15:38:13.602Z,15.30
2018-09-04T15:40:42.590Z,14.93
2018-09-04T15:43:11.423Z,14.30
2018-09-04T15:45:40.351Z,14.10
2018-09-04T15:48:09.212Z,14.15
2018-09-04T15:50:38.115Z,13.72
2018-09-04T15:53:07.020Z,15.20
2018-09-04T15:55:36.101Z,15.13
2018-09-04T15:58:04.937Z,15.95
2018-09-04T16:00:40.009Z,15.68
2018-09-04T16:03:08.842Z,16.20
2018-09-04T16:05:37.621Z,16.23
2018-09-04T16:08:06.532Z,15.23
2018-09-04T16:10:35.451Z,16.07
2018-09-04T16:13:04.291Z,15.93
2018-09-04T16:15:33.188Z,14.80
2018-09-04T16:18:01.949Z,15.50
2018-09-04T16:20:30.880Z,14.93
2018-09-04T16:22:59.716Z,16.02
2018-09-04T16:25:28.578Z,14.87
2018-09-04T16:27:57.451Z,15.32
2018-09-04T16:30:26.336Z,16.52
2018-09-04T16:32:55.172Z,16.65
2018-09-04T16:35:24.078Z,15.85
2018-09-04T16:37:52.898Z,17.90
2018-09-04T16:40:21.762Z,17.23
2018-09-04T16:42:50.604Z,18.15
2018-09-04T16:45:19.515Z,16.80
2018-09-04T16:47:48.393Z,17.27
2018-09-04T16:50:17.310Z,18.42
2018-09-04T16:52:46.211Z,18.45
2018-09-04T16:55:15.109Z,18.25
2018-09-04T16:57:44.018Z,18.32
2018-09-04T17:00:12.879Z,17.50
2018-09-04T17:02:41.778Z,15.23
2018-09-04T17:05:10.562Z,16.00
2018-09-04T17:07:39.488Z,16.10
2018-09-04T17:10:08.312Z,16.02
2018-09-04T17:12:37.193Z,14.60
2018-09-04T17:15:06.075Z,13.85
2018-09-04T17:17:34.931Z,14.00
2018-09-04T17:20:04.000Z,14.33
2018-09-04T17:22:32.880Z,14.20
2018-09-04T17:25:01.682Z,14.00
2018-09-04T17:27:30.583Z,13.80
2018-09-04T17:29:59.410Z,14.13
2018-09-04T17:32:28.321Z,14.70
2018-09-04T17:34:57.175Z,13.97
2018-09-04T17:37:26.041Z,14.97
2018-09-04T17:39:54.955Z,17.50
2018-09-04T17:42:23.888Z,18.73
2018-09-04T17:44:52.717Z,18.57
2018-09-04T17:47:21.575Z,19.67
2018-09-04T17:49:50.428Z,19.67
2018-09-04T17:52:19.320Z,19.87
2018-09-04T17:54:48.181Z,21.03
2018-09-04T17:57:17.038Z,20.77
2018-09-04T17:59:45.853Z,19.27
2018-09-04T18:02:14.748Z,20.70
2018-09-04T18:04:43.546Z,19.97
2018-09-04T18:07:12.477Z,19.93
2018-09-04T18:09:41.336Z,20.27
2018-09-04T18:12:10.180Z,19.43
2018-09-04T18:14:39.036Z,20.37
2018-09-04T18:17:08.346Z,20.30
2018-09-04T18:19:37.208Z,20.87
2018-09-04T18:22:06.068Z,18.50
2018-09-04T18:24:35.227Z,19.37
2018-09-04T18:27:04.131Z,19.60
2018-09-04T18:29:32.977Z,20.40
2018-09-04T18:32:01.918Z,20.03
2018-09-04T18:34:30.742Z,19.40
2018-09-04T18:36:59.693Z,18.60
2018-09-04T18:39:28.603Z,18.83
2018-09-04T18:41:57.513Z,19.33
2018-09-04T18:44:26.410Z,19.60
2018-09-04T18:46:55.321Z,18.60
2018-09-04T18:49:24.149Z,19.47
2018-09-04T18:51:53.038Z,21.07
2018-09-04T18:54:21.869Z,19.37
2018-09-04T18:56:50.670Z,19.37
2018-09-04T18:59:19.613Z,19.00
2018-09-04T19:01:48.414Z,20.10
2018-09-04T19:04:17.289Z,20.27
2018-09-04T19:06:46.389Z,19.43
2018-09-04T19:09:15.242Z,19.63
2018-09-04T19:11:44.042Z,20.47
2018-09-04T19:14:12.963Z,19.17
2018-09-04T19:16:41.837Z,22.07
2018-09-04T19:19:10.689Z,23.67
2018-09-04T19:21:39.503Z,20.53
2018-09-04T19:24:08.400Z,20.00
2018-09-04T19:26:37.201Z,20.53
2018-09-04T19:29:06.281Z,21.17
2018-09-04T19:31:35.136Z,20.77
2018-09-04T19:34:04.059Z,21.10
2018-09-04T19:36:32.910Z,19.47
2018-09-04T19:39:01.752Z,19.80
2018-09-04T19:41:30.572Z,20.77
2018-09-04T19:43:59.431Z,20.77
2018-09-04T19:46:28.279Z,20.43
2018-09-04T19:48:57.231Z,20.40
2018-09-04T19:51:26.076Z,22.03
2018-09-04T19:53:54.940Z,21.97
2018-09-04T19:56:23.823Z,20.43
2018-09-04T19:58:52.893Z,22.83
2018-09-04T20:01:21.868Z,22.83
2018-09-04T20:03:50.765Z,24.83
2018-09-04T20:06:19.630Z,25.97
2018-09-04T20:08:48.466Z,27.17
2018-09-04T20:11:17.293Z,24.13
2018-09-04T20:13:46.176Z,26.63
2018-09-04T20:16:42.926Z,25.83
2018-09-04T20:19:11.847Z,27.33
2018-09-04T20:21:40.768Z,26.90
2018-09-04T20:24:09.653Z,27.23
2018-09-04T20:26:38.500Z,28.50
2018-09-04T20:29:07.381Z,27.93
2018-09-04T20:31:36.237Z,28.80
2018-09-04T20:34:05.123Z,27.47
2018-09-04T20:36:33.946Z,27.23
2018-09-04T20:39:02.896Z,28.97
2018-09-04T20:41:31.751Z,29.20
2018-09-04T20:44:00.617Z,31.50
2018-09-04T20:46:29.487Z,33.70
2018-09-04T20:48:58.449Z,33.00
2018-09-04T20:51:27.300Z,33.70
2018-09-04T20:53:56.132Z,33.50
2018-09-04T20:56:25.619Z,33.67
2018-09-04T20:59:05.501Z,34.33
2018-09-04T21:01:45.379Z,33.00
2018-09-04T21:04:25.421Z,35.70
2018-09-04T21:06:54.407Z,35.47
2018-09-04T21:09:34.508Z,35.33
2018-09-04T21:12:03.398Z,33.77
2018-09-04T21:14:32.276Z,37.03
2018-09-04T21:17:01.112Z,34.37
2018-09-04T21:19:30.075Z,34.90
2018-09-04T21:21:58.875Z,37.17
2018-09-04T21:24:27.735Z,36.33
2018-09-04T21:26:56.848Z,35.47
2018-09-04T21:29:25.702Z,36.63
2018-09-04T21:31:54.538Z,39.33
2018-09-04T21:34:23.346Z,38.27
2018-09-04T21:36:52.120Z,38.73
2018-09-04T21:39:20.955Z,38.50
2018-09-04T21:41:49.745Z,39.03
2018-09-04T21:44:18.609Z,36.87
2018-09-04T21:46:47.493Z,38.37
2018-09-04T21:49:16.775Z,36.63
2018-09-04T21:51:45.608Z,37.00
2018-09-04T21:54:14.407Z,40.43
2018-09-04T21:56:43.276Z,38.20
2018-09-04T21:59:12.080Z,40.57
2018-09-04T22:01:40.905Z,39.93
2018-09-04T22:04:09.706Z,39.30
2018-09-04T22:06:38.616Z,41.47
2018-09-04T22:09:07.920Z,41.17
2018-09-04T22:11:36.768Z,43.47
2018-09-04T22:14:05.710Z,41.50
2018-09-04T22:16:34.617Z,45.73
2018-09-04T22:19:03.440Z,47.40
2018-09-04T22:21:32.316Z,47.20
2018-09-04T22:24:01.134Z,45.97
2018-09-04T22:26:29.961Z,45.20
2018-09-04T22:28:58.822Z,46.27
2018-09-04T22:31:27.680Z,47.90
2018-09-04T22:33:56.479Z,49.10
2018-09-04T22:36:25.357Z,51.57
2018-09-04T22:38:54.130Z,53.00
2018-09-04T22:41:22.935Z,52.03
2018-09-04T22:43:51.763Z,52.60
2018-09-04T22:46:20.538Z,54.23
2018-09-04T22:48:49.398Z,50.50
2018-09-04T22:51:23.757Z,47.47
2018-09-04T22:53:52.542Z,52.27
2018-09-04T22:56:21.378Z,51.63
2018-09-04T22:58:50.196Z,47.63
2018-09-04T23:01:19.035Z,49.47
2018-09-04T23:03:47.932Z,43.60
2018-09-04T23:06:16.765Z,41.50
2018-09-04T23:08:45.618Z,45.47
2018-09-04T23:11:14.446Z,43.27
2018-09-04T23:13:43.327Z,41.40
2018-09-04T23:16:12.176Z,41.13
2018-09-04T23:18:41.002Z,43.03
2018-09-04T23:21:09.830Z,42.77
2018-09-04T23:23:38.640Z,47.40
2018-09-04T23:26:07.512Z,47.43
2018-09-04T23:28:36.390Z,47.07
2018-09-04T23:31:05.252Z,45.83
2018-09-04T23:33:34.670Z,44.83
2018-09-04T23:36:03.560Z,45.80
2018-09-04T23:38:32.371Z,45.87
2018-09-04T23:41:01.180Z,46.87
2018-09-04T23:43:29.979Z,45.90
2018-09-04T23:46:02.756Z,40.73
2018-09-04T23:48:31.580Z,43.37
2018-09-04T23:51:01.670Z,45.13
2018-09-04T23:53:30.507Z,44.27
2018-09-04T23:55:59.348Z,46.47
2018-09-04T23:58:28.175Z,44.00
